createdAt,value
2018-06-25T00:01:55.868Z,15.50
2018-06-25T00:04:24.164Z,15.40
2018-06-25T00:06:52.409Z,15.40
2018-06-25T00:09:20.755Z,15.50
2018-06-25T00:11:50.192Z,15.50
2018-06-25T00:14:19.503Z,15.40
2018-06-25T00:16:48.187Z,15.30
2018-06-25T00:19:18.912Z,15.20
2018-06-25T00:21:48.864Z,15.30
2018-06-25T00:24:22.784Z,15.20
2018-06-25T00:26:51.069Z,15.20
2018-06-25T00:29:20.440Z,15.30
2018-06-25T00:31:48.729Z,15.40
2018-06-25T00:34:19.964Z,15.50
2018-06-25T00:36:49.454Z,15.30
2018-06-25T00:39:18.616Z,15.30
2018-06-25T00:41:47.805Z,15.30
2018-06-25T00:44:17.102Z,15.20
2018-06-25T00:46:45.384Z,15.20
2018-06-25T00:49:13.643Z,15.30
2018-06-25T00:51:41.924Z,15.30
2018-06-25T00:54:10.183Z,15.30
2018-06-25T00:56:38.459Z,15.20
2018-06-25T00:59:47.030Z,15.30
2018-06-25T01:02:15.898Z,15.10
2018-06-25T01:04:44.149Z,15.10
2018-06-25T01:07:12.428Z,15.10
2018-06-25T01:09:40.679Z,15.20
2018-06-25T01:12:08.973Z,15.30
2018-06-25T01:14:37.259Z,15.30
2018-06-25T01:17:05.533Z,15.30
2018-06-25T01:19:33.824Z,15.30
2018-06-25T01:22:02.076Z,15.30
2018-06-25T01:24:30.333Z,15.20
2018-06-25T01:26:58.624Z,15.30
2018-06-25T01:29:27.002Z,15.20
2018-06-25T01:31:55.191Z,15.20
2018-06-25T01:34:23.476Z,15.20
2018-06-25T01:36:51.752Z,15.30
2018-06-25T01:39:20.034Z,15.20
2018-06-25T01:41:48.955Z,15.10
2018-06-25T01:44:19.427Z,15.10
2018-06-25T01:46:48.260Z,15.00
2018-06-25T01:49:18.315Z,15.00
2018-06-25T01:51:48.266Z,14.90
2018-06-25T01:54:17.072Z,14.90
2018-06-25T01:56:46.211Z,14.90
2018-06-25T01:59:14.497Z,14.90
2018-06-25T02:01:42.763Z,14.80
2018-06-25T02:04:11.012Z,14.80
2018-06-25T02:06:39.295Z,14.90
2018-06-25T02:09:07.548Z,14.90
2018-06-25T02:11:35.831Z,15.00
2018-06-25T02:14:04.076Z,14.90
2018-06-25T02:16:32.360Z,14.90
2018-06-25T02:19:00.641Z,15.00
2018-06-25T02:21:28.919Z,15.10
2018-06-25T02:23:57.171Z,15.20
2018-06-25T02:26:25.452Z,15.10
2018-06-25T02:28:53.736Z,15.10
2018-06-25T02:31:21.996Z,15.10
2018-06-25T02:33:50.271Z,15.10
2018-06-25T02:36:19.408Z,15.10
2018-06-25T02:38:48.480Z,15.20
2018-06-25T02:41:19.104Z,15.30
2018-06-25T02:43:47.371Z,15.30
2018-06-25T02:46:19.501Z,15.30
2018-06-25T02:48:53.251Z,15.30
2018-06-25T02:51:21.725Z,15.30
2018-06-25T02:53:49.977Z,15.20
2018-06-25T02:56:18.280Z,15.10
2018-06-25T02:58:47.255Z,15.10
2018-06-25T03:01:16.552Z,15.10
2018-06-25T03:03:44.836Z,15.10
2018-06-25T03:06:13.089Z,15.00
2018-06-25T03:08:41.370Z,14.90
2018-06-25T03:11:09.619Z,15.10
2018-06-25T03:13:37.915Z,15.20
2018-06-25T03:16:06.160Z,15.20
2018-06-25T03:18:34.408Z,15.20
2018-06-25T03:21:02.694Z,15.20
2018-06-25T03:23:30.970Z,15.20
2018-06-25T03:25:59.215Z,15.30
2018-06-25T03:28:27.495Z,15.30
2018-06-25T03:30:55.748Z,15.40
2018-06-25T03:33:24.032Z,15.30
2018-06-25T03:35:52.280Z,15.30
2018-06-25T03:38:20.568Z,15.10
2018-06-25T03:40:48.824Z,15.20
2018-06-25T03:43:18.323Z,15.20
2018-06-25T03:45:48.257Z,15.30
2018-06-25T03:48:17.279Z,15.20
2018-06-25T03:50:46.699Z,15.20
2018-06-25T03:53:14.990Z,15.30
2018-06-25T03:55:43.317Z,15.40
2018-06-25T03:58:11.570Z,15.30
2018-06-25T04:00:39.839Z,15.30
2018-06-25T04:03:08.120Z,15.40
2018-06-25T04:05:36.371Z,15.30
2018-06-25T04:08:04.640Z,15.40
2018-06-25T04:10:32.931Z,15.30
2018-06-25T04:13:01.184Z,15.20
2018-06-25T04:15:29.436Z,15.30
2018-06-25T04:17:57.721Z,15.30
2018-06-25T04:20:25.971Z,15.30
2018-06-25T04:22:54.255Z,15.30
2018-06-25T04:25:22.505Z,15.40
2018-06-25T04:27:50.767Z,15.40
2018-06-25T04:30:19.980Z,15.40
2018-06-25T04:32:48.315Z,15.50
2018-06-25T04:35:18.254Z,15.30
2018-06-25T04:37:47.260Z,15.30
2018-06-25T04:40:16.988Z,15.20
2018-06-25T04:42:46.051Z,15.10
2018-06-25T04:45:14.308Z,15.00
2018-06-25T04:47:46.718Z,14.80
2018-06-25T04:50:15.002Z,14.90
2018-06-25T04:52:43.275Z,14.80
2018-06-25T04:55:11.543Z,14.80
2018-06-25T04:57:39.035Z,14.80
2018-06-25T05:00:07.315Z,14.80
2018-06-25T05:02:35.577Z,14.80
2018-06-25T05:05:03.863Z,14.70
2018-06-25T05:07:33.010Z,14.70
2018-06-25T05:10:01.299Z,14.90
2018-06-25T05:12:29.551Z,14.90
2018-06-25T05:14:57.072Z,14.90
2018-06-25T05:17:25.360Z,14.80
2018-06-25T05:19:53.615Z,14.80
2018-06-25T05:22:21.916Z,14.70
2018-06-25T05:24:50.163Z,14.80
2018-06-25T05:27:19.896Z,14.90
2018-06-25T05:29:49.328Z,15.00
2018-06-25T05:32:18.380Z,14.90
2018-06-25T05:34:48.264Z,14.90
2018-06-25T05:37:18.254Z,14.90
2018-06-25T05:39:47.444Z,14.90
2018-06-25T05:42:16.812Z,15.00
2018-06-25T05:44:46.754Z,15.30
2018-06-25T05:47:15.052Z,15.10
2018-06-25T05:49:43.368Z,15.00
2018-06-25T05:52:11.627Z,15.00
2018-06-25T05:54:39.928Z,15.10
2018-06-25T05:57:08.188Z,15.00
2018-06-25T05:59:36.448Z,15.20
2018-06-25T06:02:04.731Z,15.20
2018-06-25T06:04:34.017Z,15.30
2018-06-25T06:07:02.277Z,15.20
2018-06-25T06:09:30.560Z,15.30
2018-06-25T06:11:58.827Z,15.30
2018-06-25T06:14:27.104Z,15.40
2018-06-25T06:16:55.388Z,15.30
2018-06-25T06:19:23.665Z,15.30
2018-06-25T06:21:51.965Z,15.30
2018-06-25T06:24:20.289Z,15.40
2018-06-25T06:26:49.304Z,15.50
2018-06-25T06:29:18.396Z,15.40
2018-06-25T06:31:47.509Z,15.30
2018-06-25T06:34:16.709Z,15.40
2018-06-25T06:36:46.257Z,15.50
2018-06-25T06:39:14.512Z,15.70
2018-06-25T06:41:42.816Z,15.70
2018-06-25T06:44:11.091Z,15.80
2018-06-25T06:46:39.339Z,15.80
2018-06-25T06:49:07.628Z,15.90
2018-06-25T06:51:35.892Z,15.90
2018-06-25T06:54:04.183Z,15.80
2018-06-25T06:56:32.448Z,15.90
2018-06-25T06:59:00.730Z,15.90
2018-06-25T07:01:28.996Z,15.90
2018-06-25T07:03:57.272Z,16.00
2018-06-25T07:06:25.526Z,16.10
2018-06-25T07:08:53.824Z,16.10
2018-06-25T07:11:22.073Z,16.20
2018-06-25T07:13:50.367Z,16.30
2018-06-25T07:16:19.903Z,16.30
2018-06-25T07:18:47.583Z,16.20
2018-06-25T07:21:17.461Z,16.50
2018-06-25T07:23:46.238Z,16.60
2018-06-25T07:26:14.506Z,16.60
2018-06-25T07:28:42.756Z,16.60
2018-06-25T07:31:11.032Z,16.70
2018-06-25T07:33:39.326Z,16.60
2018-06-25T07:36:07.581Z,16.60
2018-06-25T07:38:35.859Z,16.60
2018-06-25T07:41:04.112Z,16.60
2018-06-25T07:43:32.412Z,16.60
2018-06-25T07:46:00.665Z,16.60
2018-06-25T07:48:28.918Z,16.60
2018-06-25T07:50:57.211Z,16.70
2018-06-25T07:53:25.553Z,16.70
2018-06-25T07:55:53.733Z,16.70
2018-06-25T07:58:22.013Z,16.70
2018-06-25T08:00:50.260Z,16.70
2018-06-25T08:03:19.809Z,16.60
2018-06-25T08:05:48.672Z,16.90
2018-06-25T08:08:19.387Z,16.90
2018-06-25T08:10:48.351Z,16.90
2018-06-25T08:13:23.097Z,16.90
2018-06-25T08:15:51.477Z,16.90
2018-06-25T08:18:19.284Z,16.90
2018-06-25T08:20:47.543Z,17.20
2018-06-25T08:23:17.320Z,17.20
2018-06-25T08:25:46.570Z,17.20
2018-06-25T08:28:14.878Z,17.20
2018-06-25T08:30:43.129Z,17.20
2018-06-25T08:33:11.384Z,17.30
2018-06-25T08:35:39.668Z,17.50
2018-06-25T08:38:07.911Z,17.50
2018-06-25T08:40:36.200Z,17.60
2018-06-25T08:43:04.451Z,17.80
2018-06-25T08:45:32.712Z,18.10
2018-06-25T08:48:00.994Z,18.20
2018-06-25T08:50:29.244Z,18.30
2018-06-25T08:52:57.525Z,18.40
2018-06-25T08:55:25.776Z,18.30
2018-06-25T08:57:54.040Z,18.20
2018-06-25T09:00:22.321Z,18.00
2018-06-25T09:02:50.571Z,17.90
2018-06-25T09:05:20.804Z,17.80
2018-06-25T09:07:49.676Z,17.90
2018-06-25T09:10:19.920Z,17.80
2018-06-25T09:12:47.431Z,17.80
2018-06-25T09:15:16.652Z,17.90
2018-06-25T09:17:44.948Z,18.10
2018-06-25T09:20:13.195Z,18.40
2018-06-25T09:22:41.447Z,18.40
2018-06-25T09:25:09.736Z,18.30
2018-06-25T09:27:38.060Z,18.50
2018-06-25T09:30:06.278Z,18.60
2018-06-25T09:32:33.771Z,18.50
2018-06-25T09:35:02.049Z,18.60
2018-06-25T09:37:30.300Z,18.60
2018-06-25T09:39:58.633Z,18.60
2018-06-25T09:42:26.887Z,18.70
2018-06-25T09:44:55.168Z,18.70
2018-06-25T09:47:23.421Z,18.70
2018-06-25T09:49:51.705Z,18.60
2018-06-25T09:52:19.952Z,18.50
2018-06-25T09:54:49.415Z,18.40
2018-06-25T09:57:18.358Z,18.60
2018-06-25T09:59:47.901Z,18.50
2018-06-25T10:02:17.192Z,18.60
2018-06-25T10:04:45.442Z,18.80
2018-06-25T10:07:13.736Z,18.80
2018-06-25T10:09:41.980Z,18.70
2018-06-25T10:12:10.267Z,18.70
2018-06-25T10:14:38.527Z,18.60
2018-06-25T10:17:06.803Z,18.60
2018-06-25T10:19:35.072Z,18.70
2018-06-25T10:22:03.320Z,18.60
2018-06-25T10:24:31.605Z,18.60
2018-06-25T10:26:59.860Z,18.60
2018-06-25T10:29:28.141Z,18.70
2018-06-25T10:31:56.400Z,18.60
2018-06-25T10:34:24.691Z,18.60
2018-06-25T10:36:56.613Z,18.50
2018-06-25T10:39:26.877Z,18.60
2018-06-25T10:41:55.132Z,18.80
2018-06-25T10:44:23.420Z,18.80
2018-06-25T10:46:50.913Z,18.80
2018-06-25T10:49:19.788Z,19.00
2018-06-25T10:51:48.335Z,19.00
2018-06-25T10:54:20.333Z,19.00
2018-06-25T10:56:49.404Z,19.10
2018-06-25T10:59:17.653Z,18.90
2018-06-25T11:01:47.424Z,18.90
2018-06-25T11:04:14.908Z,18.90
2018-06-25T11:06:43.189Z,19.00
2018-06-25T11:09:11.477Z,19.00
2018-06-25T11:11:39.736Z,19.10
2018-06-25T11:14:08.025Z,18.90
2018-06-25T11:16:36.292Z,19.00
2018-06-25T11:19:04.569Z,18.80
2018-06-25T11:21:32.840Z,18.90
2018-06-25T11:24:01.089Z,18.90
2018-06-25T11:26:29.384Z,18.90
2018-06-25T11:28:56.872Z,18.90
2018-06-25T11:31:25.125Z,19.20
2018-06-25T11:33:53.397Z,19.40
2018-06-25T11:36:22.552Z,19.50
2018-06-25T11:38:50.827Z,19.80
2018-06-25T11:41:20.015Z,19.80
2018-06-25T11:43:49.871Z,19.90
2018-06-25T11:46:18.760Z,20.10
2018-06-25T11:48:48.496Z,20.10
2018-06-25T11:51:18.449Z,20.40
2018-06-25T11:53:48.393Z,20.60
2018-06-25T11:56:18.390Z,20.50
2018-06-25T11:58:48.902Z,20.50
2018-06-25T12:01:19.117Z,20.60
2018-06-25T12:03:53.152Z,20.60
2018-06-25T12:06:21.428Z,20.60
2018-06-25T12:08:50.941Z,20.30
2018-06-25T12:11:20.197Z,20.40
2018-06-25T12:13:50.112Z,20.80
2018-06-25T12:16:18.412Z,20.90
2018-06-25T12:18:48.397Z,20.80
2018-06-25T12:21:18.406Z,20.60
2018-06-25T12:23:47.581Z,20.60
2018-06-25T12:26:17.429Z,20.70
2018-06-25T12:28:46.795Z,21.10
2018-06-25T12:31:16.280Z,21.40
2018-06-25T12:33:44.633Z,21.60
2018-06-25T12:36:12.893Z,21.90
2018-06-25T12:38:41.169Z,22.10
2018-06-25T12:41:09.425Z,22.00
2018-06-25T12:43:37.708Z,22.00
2018-06-25T12:46:05.980Z,21.90
2018-06-25T12:48:34.234Z,21.80
2018-06-25T12:51:02.512Z,21.50
2018-06-25T12:53:30.764Z,21.70
2018-06-25T12:55:59.052Z,21.60
2018-06-25T12:58:27.309Z,21.70
2018-06-25T13:00:55.597Z,21.60
2018-06-25T13:03:23.850Z,21.70
2018-06-25T13:05:52.105Z,21.80
2018-06-25T13:08:20.393Z,22.10
2018-06-25T13:10:49.574Z,22.30
2018-06-25T13:13:18.478Z,22.30
2018-06-25T13:15:48.403Z,22.00
2018-06-25T13:18:17.510Z,21.80
2018-06-25T13:20:46.908Z,21.70
2018-06-25T13:23:15.946Z,21.60
2018-06-25T13:25:44.367Z,21.90
2018-06-25T13:28:12.528Z,22.00
2018-06-25T13:30:40.788Z,21.80
2018-06-25T13:33:09.068Z,22.00
2018-06-25T13:35:37.351Z,22.30
2018-06-25T13:38:05.632Z,22.50
2018-06-25T13:40:33.898Z,22.70
2018-06-25T13:43:01.384Z,22.70
2018-06-25T13:45:29.667Z,22.90
2018-06-25T13:47:57.921Z,22.90
2018-06-25T13:50:26.207Z,22.60
2018-06-25T13:52:54.466Z,22.50
2018-06-25T13:55:22.740Z,22.80
2018-06-25T13:57:50.260Z,22.80
2018-06-25T14:00:19.287Z,23.00
2018-06-25T14:02:47.562Z,22.80
2018-06-25T14:05:16.528Z,22.50
2018-06-25T14:07:44.803Z,22.30
2018-06-25T14:10:13.094Z,22.40
2018-06-25T14:12:41.345Z,22.80
2018-06-25T14:15:09.635Z,23.10
2018-06-25T14:17:37.910Z,23.30
2018-06-25T14:20:06.216Z,23.40
2018-06-25T14:22:34.466Z,23.20
2018-06-25T14:25:02.738Z,23.40
2018-06-25T14:27:31.025Z,23.40
2018-06-25T14:29:59.284Z,23.60
2018-06-25T14:32:27.576Z,23.80
2018-06-25T14:34:55.832Z,23.90
2018-06-25T14:37:24.111Z,23.80
2018-06-25T14:39:52.391Z,23.80
2018-06-25T14:42:20.640Z,23.70
2018-06-25T14:44:48.924Z,23.60
2018-06-25T14:47:18.575Z,23.60
2018-06-25T14:49:47.861Z,23.60
2018-06-25T14:52:16.576Z,23.70
2018-06-25T14:54:44.851Z,23.90
2018-06-25T14:57:13.107Z,24.00
2018-06-25T14:59:41.385Z,24.30
2018-06-25T15:02:09.640Z,24.30
2018-06-25T15:04:37.927Z,24.10
2018-06-25T15:07:06.172Z,24.20
2018-06-25T15:09:34.416Z,24.20
2018-06-25T15:12:02.700Z,24.30
2018-06-25T15:14:30.172Z,24.30
2018-06-25T15:16:58.450Z,24.00
2018-06-25T15:19:25.932Z,24.00
2018-06-25T15:21:54.179Z,24.00
2018-06-25T15:24:21.691Z,24.00
2018-06-25T15:26:50.859Z,23.70
2018-06-25T15:29:19.160Z,24.00
2018-06-25T15:31:47.417Z,24.00
2018-06-25T15:34:16.790Z,24.00
2018-06-25T15:36:46.254Z,24.10
2018-06-25T15:39:14.649Z,24.20
2018-06-25T15:41:42.897Z,24.00
2018-06-25T15:44:10.430Z,24.00
2018-06-25T15:46:38.680Z,23.90
2018-06-25T15:49:06.934Z,23.90
2018-06-25T15:51:35.216Z,23.80
2018-06-25T15:54:03.469Z,23.70
2018-06-25T15:56:31.755Z,23.80
2018-06-25T15:59:00.000Z,24.00
2018-06-25T16:01:28.261Z,23.90
2018-06-25T16:03:55.786Z,23.90
2018-06-25T16:06:24.040Z,23.60
2018-06-25T16:08:52.315Z,23.30
2018-06-25T16:11:20.561Z,23.10
2018-06-25T16:13:49.764Z,23.10
2018-06-25T16:16:18.480Z,23.10
2018-06-25T16:18:48.581Z,23.10
2018-06-25T16:21:17.691Z,23.30
2018-06-25T16:23:47.540Z,23.30
2018-06-25T16:26:16.810Z,23.20
2018-06-25T16:28:46.559Z,23.30
2018-06-25T16:31:14.796Z,23.40
2018-06-25T16:33:44.095Z,23.30
2018-06-25T16:36:12.372Z,23.40
2018-06-25T16:38:40.624Z,23.60
2018-06-25T16:41:08.899Z,23.70
2018-06-25T16:43:37.251Z,23.70
2018-06-25T16:46:04.741Z,23.70
2018-06-25T16:48:33.016Z,23.60
2018-06-25T16:51:01.296Z,23.50
2018-06-25T16:53:29.539Z,23.60
2018-06-25T16:55:57.821Z,23.60
2018-06-25T16:58:26.104Z,23.50
2018-06-25T17:00:54.373Z,23.50
2018-06-25T17:03:22.668Z,23.50
2018-06-25T17:05:50.921Z,23.60
2018-06-25T17:08:20.343Z,23.50
2018-06-25T17:10:49.370Z,23.60
2018-06-25T17:13:18.501Z,23.60
2018-06-25T17:15:47.574Z,23.50
2018-06-25T17:18:17.279Z,23.60
2018-06-25T17:20:46.509Z,23.50
2018-06-25T17:23:14.788Z,23.70
2018-06-25T17:25:43.040Z,23.60
2018-06-25T17:28:10.550Z,23.60
2018-06-25T17:30:38.804Z,23.50
2018-06-25T17:33:07.089Z,23.40
2018-06-25T17:35:35.388Z,23.40
2018-06-25T17:38:03.643Z,23.20
2018-06-25T17:40:31.896Z,23.40
2018-06-25T17:43:00.175Z,23.40
2018-06-25T17:45:28.440Z,23.30
2018-06-25T17:47:56.727Z,23.10
2018-06-25T17:50:24.984Z,23.10
2018-06-25T17:52:53.264Z,23.00
2018-06-25T17:55:21.516Z,22.90
2018-06-25T17:57:50.628Z,22.90
2018-06-25T18:00:19.935Z,22.80
2018-06-25T18:02:48.280Z,22.70
2018-06-25T18:05:17.229Z,22.80
2018-06-25T18:07:45.550Z,22.70
2018-06-25T18:10:13.804Z,22.60
2018-06-25T18:12:42.101Z,22.60
2018-06-25T18:15:09.585Z,22.60
2018-06-25T18:17:37.843Z,22.50
2018-06-25T18:20:06.117Z,22.50
2018-06-25T18:22:34.411Z,22.30
2018-06-25T18:25:02.719Z,22.30
2018-06-25T18:27:30.993Z,22.20
2018-06-25T18:29:59.283Z,22.20
2018-06-25T18:32:26.772Z,22.20
2018-06-25T18:34:55.109Z,22.20
2018-06-25T18:37:23.385Z,22.10
2018-06-25T18:39:51.672Z,22.10
2018-06-25T18:42:20.547Z,22.00
2018-06-25T18:44:49.805Z,21.90
2018-06-25T18:47:19.719Z,21.70
2018-06-25T18:49:48.518Z,21.50
2018-06-25T18:52:17.560Z,21.50
2018-06-25T18:54:46.911Z,21.40
2018-06-25T18:57:15.910Z,21.60
2018-06-25T18:59:44.154Z,21.70
2018-06-25T19:02:11.672Z,21.60
2018-06-25T19:04:39.947Z,21.40
2018-06-25T19:07:08.204Z,21.40
2018-06-25T19:09:36.492Z,21.30
2018-06-25T19:12:04.763Z,21.20
2018-06-25T19:14:33.057Z,21.10
2018-06-25T19:17:01.304Z,21.10
2018-06-25T19:19:29.560Z,21.00
2018-06-25T19:21:57.840Z,21.00
2018-06-25T19:24:26.223Z,21.00
2018-06-25T19:26:53.703Z,21.00
2018-06-25T19:29:21.990Z,21.00
2018-06-25T19:31:50.245Z,20.90
2018-06-25T19:34:19.476Z,20.80
2018-06-25T19:36:47.731Z,20.80
2018-06-25T19:39:16.724Z,20.90
2018-06-25T19:41:44.969Z,20.70
2018-06-25T19:44:13.816Z,20.70
2018-06-25T19:46:42.104Z,20.70
2018-06-25T19:49:10.351Z,20.60
2018-06-25T19:51:39.524Z,20.60
2018-06-25T19:54:07.808Z,20.40
2018-06-25T19:56:35.292Z,20.40
2018-06-25T19:59:03.580Z,20.50
2018-06-25T20:01:31.829Z,20.50
2018-06-25T20:04:00.103Z,20.40
2018-06-25T20:06:28.373Z,20.30
2018-06-25T20:08:56.654Z,20.30
2018-06-25T20:11:24.911Z,20.20
2018-06-25T20:13:53.191Z,20.20
2018-06-25T20:16:21.456Z,20.10
2018-06-25T20:18:50.684Z,20.20
2018-06-25T20:21:19.974Z,20.00
2018-06-25T20:23:48.649Z,20.00
2018-06-25T20:26:18.558Z,20.00
2018-06-25T20:28:47.756Z,19.90
2018-06-25T20:31:17.071Z,19.80
2018-06-25T20:33:45.349Z,19.70
2018-06-25T20:36:13.632Z,19.70
2018-06-25T20:38:41.891Z,19.60
2018-06-25T20:41:10.140Z,19.50
2018-06-25T20:43:38.420Z,19.60
2018-06-25T20:46:06.676Z,19.40
2018-06-25T20:48:34.966Z,19.50
2018-06-25T20:51:03.212Z,19.40
2018-06-25T20:53:31.488Z,19.30
2018-06-25T20:55:58.984Z,19.30
2018-06-25T20:58:27.244Z,19.20
2018-06-25T21:00:55.488Z,19.10
2018-06-25T21:03:23.780Z,19.20
2018-06-25T21:05:52.024Z,19.10
2018-06-25T21:08:20.309Z,19.10
2018-06-25T21:10:48.675Z,19.00
2018-06-25T21:13:18.654Z,19.00
2018-06-25T21:15:47.816Z,18.90
2018-06-25T21:18:17.063Z,18.90
2018-06-25T21:20:46.061Z,18.90
2018-06-25T21:23:14.341Z,18.80
2018-06-25T21:25:42.591Z,18.80
2018-06-25T21:28:10.877Z,18.70
2018-06-25T21:30:39.151Z,18.60
2018-06-25T21:33:07.401Z,18.60
2018-06-25T21:35:35.680Z,18.60
2018-06-25T21:38:03.944Z,18.60
2018-06-25T21:40:32.249Z,18.60
2018-06-25T21:43:00.508Z,18.50
2018-06-25T21:45:28.768Z,18.40
2018-06-25T21:47:57.040Z,18.40
2018-06-25T21:50:25.316Z,18.30
2018-06-25T21:52:53.597Z,18.30
2018-06-25T21:55:21.852Z,18.50
2018-06-25T21:57:51.154Z,18.30
2018-06-25T22:00:20.548Z,18.30
2018-06-25T22:02:50.437Z,18.10
2018-06-25T22:05:20.096Z,18.10
2018-06-25T22:07:49.800Z,18.00
2018-06-25T22:10:18.148Z,17.90
2018-06-25T22:12:46.405Z,17.90
2018-06-25T22:15:14.653Z,17.90
2018-06-25T22:17:42.947Z,17.80
2018-06-25T22:20:11.196Z,17.80
2018-06-25T22:22:38.713Z,17.80
2018-06-25T22:25:06.961Z,17.80
2018-06-25T22:27:35.273Z,17.80
2018-06-25T22:30:03.538Z,17.70
2018-06-25T22:32:31.073Z,17.70
2018-06-25T22:34:59.316Z,17.70
2018-06-25T22:37:27.576Z,17.70
2018-06-25T22:39:55.879Z,17.70
2018-06-25T22:42:24.188Z,17.50
2018-06-25T22:44:52.449Z,17.40
2018-06-25T22:47:20.701Z,17.20
2018-06-25T22:49:49.944Z,17.20
2018-06-25T22:52:17.429Z,17.10
2018-06-25T22:54:46.864Z,17.10
2018-06-25T22:57:15.835Z,17.00
2018-06-25T22:59:44.124Z,17.10
2018-06-25T23:02:11.627Z,17.10
2018-06-25T23:04:39.916Z,17.20
2018-06-25T23:07:08.212Z,17.10
2018-06-25T23:09:36.492Z,17.20
2018-06-25T23:12:04.748Z,17.10
2018-06-25T23:14:33.029Z,17.10
2018-06-25T23:17:01.303Z,17.20
2018-06-25T23:19:29.554Z,17.00
2018-06-25T23:21:57.837Z,17.10
2018-06-25T23:24:29.131Z,17.10
2018-06-25T23:26:57.416Z,17.10
2018-06-25T23:29:25.669Z,17.10
2018-06-25T23:31:53.958Z,17.10
2018-06-25T23:34:25.419Z,17.20
2018-06-25T23:36:53.695Z,17.10
2018-06-25T23:39:21.226Z,17.10
2018-06-25T23:41:49.530Z,16.90
2018-06-25T23:44:18.670Z,16.80
2018-06-25T23:46:48.179Z,16.70
2018-06-25T23:49:17.448Z,16.60
2018-06-25T23:51:46.871Z,16.70
2018-06-25T23:54:15.940Z,16.60
2018-06-25T23:56:44.216Z,16.50
2018-06-25T23:59:12.501Z,16.60
